| time (UTC) | temp F | wind direction | speed knots | gust knots | rain 1hr in | rain 24hr in | rain mn in | humidity % | barometer mb |
| 20260506175541 | 63 | 293 | 2.6 | 6.1 | 0.00 | 0.00 | 0.00 | 48 | 1014.4 |
| 20260506174541 | 63 | 90 | 0.9 | 2.6 | 0.00 | 0.00 | 0.00 | 40 | 1014.7 |
| 20260506173545 | 63 | 0.0 | 0.0 | 0.00 | 0.00 | 0.00 | 47 | 1014.8 | |
| 20260506172541 | 63 | 0.0 | 0.9 | 0.00 | 0.00 | 0.00 | 47 | 1014.9 | |
| 20260506171602 | 62 | 180 | 1.7 | 3.5 | 0.00 | 0.00 | 0.00 | 45 | 1015.0 |
| 20260506170541 | 60 | 158 | 0.9 | 3.5 | 0.00 | 0.00 | 0.00 | 49 | 1014.8 |
| 20260506165541 | 59 | 0.0 | 0.9 | 0.00 | 0.00 | 0.00 | 50 | 1014.9 | |
| 20260506164541 | 58 | 0.0 | 1.7 | 0.00 | 0.00 | 0.00 | 52 | 1015.1 | |
| 20260506163541 | 57 | 158 | 0.9 | 3.5 | 0.00 | 0.00 | 0.00 | 52 | 1015.0 |
| 20260506162541 | 56 | 0.0 | 0.0 | 0.00 | 0.00 | 0.00 | 55 | 1015.2 | |
| 20260506161601 | 55 | 0.0 | 1.7 | 0.00 | 0.00 | 0.00 | 62 | 1015.4 | |
| 20260506160601 | 54 | 0.0 | 1.7 | 0.00 | 0.00 | 0.00 | 60 | 1015.5 | |
| 20260506155541 | 53 | 0.0 | 1.7 | 0.00 | 0.00 | 0.00 | 65 | 1015.4 | |
| 20260506154541 | 52 | 0.0 | 1.7 | 0.00 | 0.00 | 0.00 | 66 | 1015.8 | |
| 20260506153601 | 51 | 158 | 1.7 | 4.3 | 0.00 | 0.00 | 0.00 | 65 | 1015.6 |
| 20260506152541 | 50 | 0.0 | 1.7 | 0.00 | 0.00 | 0.00 | 73 | 1015.9 | |
| 20260506151542 | 47 | 293 | 0.9 | 1.7 | 0.00 | 0.00 | 0.00 | 78 | 1015.8 |
| 20260506150541 | 46 | 293 | 0.9 | 1.7 | 0.00 | 0.00 | 0.00 | 82 | 1015.7 |
| 20260506145541 | 44 | 0.0 | 0.9 | 0.00 | 0.00 | 0.00 | 86 | 1015.6 | |
| 20260506144541 | 42 | 0.0 | 0.9 | 0.00 | 0.00 | 0.00 | 89 | 1015.8 | |
| 20260506143542 | 40 | 293 | 0.9 | 1.7 | 0.00 | 0.00 | 0.00 | 89 | 1015.7 |
| 20260506142541 | 40 | 293 | 0.9 | 0.9 | 0.00 | 0.00 | 0.00 | 89 | 1015.7 |
| 20260506141541 | 40 | 293 | 0.9 | 1.7 | 0.00 | 0.00 | 0.00 | 89 | 1015.8 |
| 20260506140541 | 40 | 293 | 0.9 | 1.7 | 0.00 | 0.00 | 0.00 | 89 | 1015.6 |
| 20260506135541 | 39 | 0.0 | 0.0 | 0.00 | 0.00 | 0.00 | 89 | 1015.6 | |
| 20260506134541 | 39 | 0.0 | 0.0 | 0.00 | 0.00 | 0.00 | 89 | 1016.4 | |
| 20260506133541 | 39 | 0.0 | 0.9 | 0.00 | 0.00 | 0.00 | 89 | 1016.4 | |
| 20260506132540 | 39 | 0.0 | 0.0 | 0.00 | 0.00 | 0.00 | 89 | 1016.4 | |
| 20260506131601 | 39 | 293 | 0.9 | 1.7 | 0.00 | 0.00 | 0.00 | 90 | 1016.7 |
| 20260506130540 | 39 | 0.0 | 0.0 | 0.00 | 0.00 | 0.00 | 90 | 1016.5 | |
| 20260506125541 | 39 | 0.0 | 0.9 | 0.00 | 0.00 | 0.00 | 91 | 1016.2 | |
| 20260506124541 | 38 | 0.0 | 0.0 | 0.00 | 0.00 | 0.00 | 91 | 1016.4 | |
| 20260506123541 | 38 | 0.0 | 0.0 | 0.00 | 0.00 | 0.00 | 89 | 1016.3 | |
| 20260506122541 | 38 | 0.0 | 0.0 | 0.00 | 0.00 | 0.00 | 90 | 1016.3 | |
| 20260506121540 | 38 | 0.0 | 0.0 | 0.00 | 0.00 | 0.00 | 89 | 1016.4 | |
| 20260506120541 | 38 | 0.0 | 0.0 | 0.00 | 0.00 | 0.00 | 89 | 1016.4 | |
| 20260506115540 | 38 | 0.0 | 0.0 | 0.00 | 0.00 | 0.00 | 89 | 1016.4 | |
| 20260506114540 | 38 | 0.0 | 0.0 | 0.00 | 0.00 | 0.00 | 90 | 1016.3 | |
| 20260506113541 | 38 | 0.0 | 0.0 | 0.00 | 0.00 | 0.00 | 90 | 1016.2 | |
| 20260506112541 | 38 | 0.0 | 0.0 | 0.00 | 0.00 | 0.00 | 89 | 1016.2 | |
| 20260506111540 | 39 | 0.0 | 0.0 | 0.00 | 0.00 | 0.00 | 89 | 1016.2 | |
| 20260506110600 | 39 | 0.0 | 0.9 | 0.00 | 0.00 | 0.00 | 89 | 1016.1 | |
| 20260506105540 | 39 | 0.0 | 0.0 | 0.00 | 0.00 | 0.00 | 88 | 1016.0 | |
| 20260506104620 | 39 | 0.0 | 0.9 | 0.00 | 0.00 | 0.00 | 87 | 1016.1 | |
| 20260506103542 | 39 | 0.0 | 0.0 | 0.00 | 0.00 | 0.00 | 88 | 1016.0 | |
| 20260506102542 | 39 | 0.0 | 0.0 | 0.00 | 0.00 | 0.00 | 88 | 1016.1 | |
| 20260506101543 | 39 | 0.0 | 0.0 | 0.00 | 0.00 | 0.00 | 87 | 1016.0 | |
| 20260506100543 | 39 | 0.0 | 0.9 | 0.00 | 0.00 | 0.00 | 87 | 1015.8 | |
| 20260506095542 | 40 | 0.0 | 0.9 | 0.00 | 0.00 | 0.00 | 86 | 1015.8 | |
| 20260506094542 | 40 | 0.0 | 0.0 | 0.00 | 0.00 | 0.00 | 86 | 1015.8 | |
| 20260506093542 | 40 | 0.0 | 0.0 | 0.00 | 0.00 | 0.00 | 86 | 1015.8 | |
| 20260506092542 | 40 | 0.0 | 0.9 | 0.00 | 0.00 | 0.00 | 85 | 1016.0 | |
| 20260506091542 | 40 | 0.0 | 0.0 | 0.00 | 0.00 | 0.00 | 87 | 1015.9 | |
| 20260506090543 | 41 | 0.0 | 0.0 | 0.00 | 0.00 | 0.00 | 85 | 1016.2 | |
| 20260506085542 | 41 | 0.0 | 0.9 | 0.00 | 0.00 | 0.00 | 84 | 1016.1 | |
| 20260506084542 | 41 | 0.0 | 0.9 | 0.00 | 0.00 | 0.00 | 84 | 1016.0 | |
| 20260506083543 | 41 | 0.0 | 0.0 | 0.00 | 0.00 | 0.00 | 84 | 1015.7 | |
| 20260506082602 | 41 | 0.0 | 0.0 | 0.00 | 0.00 | 0.00 | 85 | 1015.7 | |
| 20260506081542 | 41 | 0.0 | 0.0 | 0.00 | 0.00 | 0.00 | 84 | 1015.5 | |
| 20260506080542 | 41 | 0.0 | 0.0 | 0.00 | 0.00 | 0.00 | 85 | 1015.5 | |
| 20260506072542 | 42 | 0.0 | 0.0 | 0.00 | 0.00 | 0.00 | 82 | 1015.1 | |
| 20260506071542 | 42 | 0.0 | 0.0 | 0.00 | 0.00 | 0.00 | 81 | 1015.0 | |
| 20260506070542 | 42 | 0.0 | 0.0 | 0.00 | 0.00 | 0.00 | 81 | 1014.8 | |
| 20260506061541 | 44 | 0.0 | 0.9 | 0.00 | 0.00 | 0.00 | 78 | 1014.7 | |
| 20260506060541 | 44 | 0.0 | 0.0 | 0.00 | 0.00 | 0.00 | 78 | 1014.5 | |
| 20260506050541 | 46 | 293 | 0.9 | 2.6 | 0.00 | 0.00 | 0.00 | 74 | 1014.1 |
| 20260506044542 | 47 | 0.0 | 0.0 | 0.00 | 0.00 | 0.00 | 71 | 1013.8 | |
| 20260506043542 | 47 | 0.0 | 0.0 | 0.00 | 0.00 | 0.00 | 72 | 1013.6 | |
| 20260506042542 | 48 | 0.0 | 0.0 | 0.00 | 0.00 | 0.00 | 72 | 1013.5 | |
| 20260506041543 | 48 | 0.0 | 0.9 | 0.00 | 0.00 | 0.00 | 71 | 1013.4 | |
| 20260506040543 | 49 | 293 | 1.7 | 2.6 | 0.00 | 0.00 | 0.00 | 71 | 1013.4 |
| 20260506035542 | 50 | 293 | 0.9 | 1.7 | 0.00 | 0.00 | 0.00 | 70 | 1013.3 |
| 20260506034542 | 50 | 315 | 0.9 | 1.7 | 0.00 | 0.00 | 0.00 | 71 | 1013.4 |
| 20260506033542 | 51 | 315 | 0.9 | 1.7 | 0.00 | 0.00 | 0.00 | 70 | 1013.0 |
| 20260506032542 | 51 | 315 | 0.9 | 2.6 | 0.00 | 0.00 | 0.00 | 70 | 1013.0 |
| 20260506031542 | 52 | 315 | 0.9 | 1.7 | 0.00 | 0.00 | 0.00 | 69 | 1013.0 |
| 20260506030602 | 52 | 315 | 0.9 | 1.7 | 0.00 | 0.00 | 0.00 | 69 | 1012.4 |
| 20260506025542 | 53 | 315 | 0.9 | 1.7 | 0.00 | 0.00 | 0.00 | 67 | 1012.4 |
| 20260506024542 | 54 | 315 | 1.7 | 2.6 | 0.00 | 0.00 | 0.00 | 67 | 1012.3 |
| 20260506023602 | 54 | 293 | 1.7 | 3.5 | 0.00 | 0.00 | 0.00 | 64 | 1012.3 |
| 20260506022542 | 55 | 293 | 1.7 | 2.6 | 0.00 | 0.00 | 0.00 | 61 | 1012.3 |
| 20260506021542 | 56 | 270 | 1.7 | 1.7 | 0.00 | 0.00 | 0.00 | 60 | 1012.4 |
| 20260506020542 | 57 | 270 | 1.7 | 2.6 | 0.00 | 0.00 | 0.00 | 58 | 1012.4 |
| 20260506015603 | 57 | 270 | 1.7 | 2.6 | 0.00 | 0.00 | 0.00 | 56 | 1012.4 |
| 20260506014542 | 58 | 270 | 2.6 | 3.5 | 0.00 | 0.00 | 0.00 | 54 | 1012.5 |
| 20260506013622 | 59 | 270 | 1.7 | 3.5 | 0.00 | 0.00 | 0.00 | 51 | 1012.6 |
| 20260506012542 | 62 | 270 | 2.6 | 3.5 | 0.00 | 0.00 | 0.00 | 47 | 1012.8 |
| 20260506011542 | 65 | 270 | 1.7 | 3.5 | 0.00 | 0.00 | 0.00 | 38 | 1013.0 |
| 20260506010542 | 67 | 0.0 | 1.7 | 0.00 | 0.00 | 0.00 | 37 | 1013.2 | |
| 20260506005602 | 68 | 270 | 1.7 | 3.5 | 0.00 | 0.00 | 0.00 | 34 | 1013.4 |
| 20260506004542 | 69 | 293 | 0.9 | 2.6 | 0.00 | 0.00 | 0.00 | 32 | 1013.5 |
| 20260506003542 | 70 | 315 | 0.9 | 2.6 | 0.00 | 0.00 | 0.00 | 30 | 1013.6 |
| 20260506002542 | 70 | 270 | 2.6 | 6.1 | 0.00 | 0.00 | 0.00 | 29 | 1013.6 |
| 20260506001542 | 71 | 270 | 3.5 | 7.0 | 0.00 | 0.00 | 0.00 | 28 | 1013.6 |
| 20260506000542 | 71 | 315 | 2.6 | 7.0 | 0.00 | 0.00 | 0.00 | 26 | 1014.0 |
| 20260505235542 | 72 | 270 | 3.5 | 7.0 | 0.00 | 0.00 | 0.00 | 25 | 1014.1 |
| 20260505234542 | 72 | 338 | 3.5 | 8.7 | 0.00 | 0.00 | 0.00 | 24 | 1014.1 |
| 20260505233542 | 73 | 293 | 2.6 | 7.8 | 0.00 | 0.00 | 0.00 | 26 | 1014.4 |
| 20260505232542 | 73 | 270 | 2.6 | 5.2 | 0.00 | 0.00 | 0.00 | 23 | 1014.3 |
| 20260505231542 | 73 | 338 | 2.6 | 7.0 | 0.00 | 0.00 | 0.00 | 26 | 1014.5 |
| 20260505230542 | 72 | 293 | 2.6 | 6.1 | 0.00 | 0.00 | 0.00 | 24 | 1014.7 |
| 20260505225601 | 72 | 338 | 3.5 | 7.8 | 0.00 | 0.00 | 0.00 | 24 | 1014.8 |
| 20260505224541 | 72 | 338 | 2.6 | 6.1 | 0.00 | 0.00 | 0.00 | 23 | 1014.9 |
| 20260505223542 | 72 | 0 | 3.5 | 7.0 | 0.00 | 0.00 | 0.00 | 21 | 1014.9 |
| 20260505222541 | 72 | 338 | 4.3 | 7.8 | 0.00 | 0.00 | 0.00 | 24 | 1015.1 |
| 20260505221601 | 72 | 293 | 3.5 | 7.0 | 0.00 | 0.00 | 0.00 | 24 | 1015.2 |
| 20260505220622 | 72 | 338 | 3.5 | 7.0 | 0.00 | 0.00 | 0.00 | 24 | 1015.3 |
| 20260505215542 | 71 | 338 | 3.5 | 10.4 | 0.00 | 0.00 | 0.00 | 25 | 1015.4 |
| 20260505214541 | 71 | 0 | 4.3 | 9.6 | 0.00 | 0.00 | 0.00 | 26 | 1015.4 |
| 20260505213541 | 71 | 338 | 3.5 | 7.8 | 0.00 | 0.00 | 0.00 | 29 | 1015.5 |
| 20260505212541 | 72 | 248 | 2.6 | 7.8 | 0.00 | 0.00 | 0.00 | 28 | 1015.7 |
| 20260505211602 | 71 | 270 | 2.6 | 7.0 | 0.00 | 0.00 | 0.00 | 29 | 1015.7 |
| 20260505210541 | 70 | 270 | 4.3 | 7.8 | 0.00 | 0.00 | 0.00 | 30 | 1015.8 |
| 20260505205541 | 70 | 270 | 4.3 | 9.6 | 0.00 | 0.00 | 0.00 | 29 | 1015.8 |
| 20260505204601 | 69 | 270 | 4.3 | 9.6 | 0.00 | 0.00 | 0.00 | 32 | 1015.8 |
| 20260505203542 | 69 | 315 | 3.5 | 8.7 | 0.00 | 0.00 | 0.00 | 30 | 1016.0 |
| 20260505202542 | 69 | 270 | 4.3 | 9.6 | 0.00 | 0.00 | 0.00 | 30 | 1016.0 |
| 20260505201541 | 68 | 270 | 5.2 | 11.3 | 0.00 | 0.00 | 0.00 | 30 | 1015.9 |
| 20260505200542 | 68 | 270 | 4.3 | 8.7 | 0.00 | 0.00 | 0.00 | 29 | 1016.0 |
| 20260505195542 | 68 | 293 | 4.3 | 12.2 | 0.00 | 0.00 | 0.00 | 32 | 1016.0 |
| 20260505194541 | 67 | 270 | 5.2 | 8.7 | 0.00 | 0.00 | 0.00 | 33 | 1016.1 |
| 20260505193602 | 67 | 270 | 3.5 | 8.7 | 0.00 | 0.00 | 0.00 | 35 | 1016.3 |
| 20260505192541 | 66 | 293 | 3.5 | 8.7 | 0.00 | 0.00 | 0.00 | 36 | 1016.4 |
| 20260505191541 | 66 | 0 | 3.5 | 7.0 | 0.00 | 0.00 | 0.00 | 37 | 1016.3 |
| 20260505190541 | 65 | 270 | 4.3 | 9.6 | 0.00 | 0.00 | 0.00 | 40 | 1016.4 |
| 20260505185543 | 64 | 270 | 3.5 | 7.8 | 0.00 | 0.00 | 0.00 | 43 | 1016.5 |
| 20260505184541 | 63 | 0 | 4.3 | 9.6 | 0.00 | 0.00 | 0.00 | 44 | 1016.4 |
| 20260505183541 | 63 | 270 | 3.5 | 8.7 | 0.00 | 0.00 | 0.00 | 44 | 1016.7 |
| 20260505182601 | 63 | 293 | 4.3 | 8.7 | 0.00 | 0.00 | 0.00 | 45 | 1016.5 |
| 20260505181541 | 62 | 270 | 5.2 | 9.6 | 0.00 | 0.00 | 0.00 | 45 | 1016.6 |
| 20260505180541 | 61 | 270 | 3.5 | 9.6 | 0.00 | 0.00 | 0.00 | 45 | 1016.7 |